Northern & Central Napa County

32 Stations

15 Minute Data | America/Los_Angeles
as of 5/2/26 8:50 PM PDT
Station Date Time Temp (°F) RH (%) Dew Pt (°F) Wind Spd (mph) Wind Dir (°) Wind Gust (mph) Latest Rain (In) Daily Rain (In) Daily Max Temp (°F) Daily Min Temp (°F)
Calistoga-North 5/2/26 1815 61.2   16.9 70   21 51.4   6.2 - - - 0.00 0.00 83.7   0.0 45.5   0.0
Stags Leap Dist (Chimney Rock) 5/2/26 2045 55.3   4.5 80   2 49.1   5.1 5.0   1.8 ESE | 119 9.3   2.8 0.00 0.00 66.6   4.3 53.3   9.5
Diamond Mtn (McEachran) 5/2/26 2045 53.0   7.5 84   0 48.2   7.4 - - - - - 68.9   8.3 51.2   3.0
Diamond Mtn (Schramsberg) 5/2/26 2045 51.9   7.9 87   4 48.1   6.3 - - - 0.00 0.00 68.6   8.5 49.3   0.4
Stags Leap Dist (Silverado Vineyards) 5/2/26 2045 54.8   4.2 74   5 46.8   5.7 5.4   1.8 ESE | 108 9.8   1.1 0.00 0.00 65.7   4.7 52.3   7.2
Oak Knoll-East (Ranch 53) 5/2/26 2045 55.0   4.0 76   6 47.5   5.8 3.6   0.5 SE | 136 7.5   2.2 0.00 0.00 66.3   4.7 51.8   6.7
Rutherford-North (Mee Ln) 5/2/26 2045 56.5   3.3 76   4 48.9   4.7 4.0   0.9 ESE | 106 6.6   1.8 0.00 0.00 68.9   6.3 50.1   7.5
Frisinger Napa-NW 5/2/26 2045 55.2   1.0 78   7 48.4   3.4 1.3   0.4 WSW | 242 4.2   1.2 0.00 0.00 66.8   3.4 49.5   3.5
Napa-North (Ranch 29) 5/2/26 2045 54.8   4.3 77   4 47.9   5.4 1.0   0.7 SSE | 159 3.1   0.5 0.00 0.00 65.6   3.8 53.1   7.0
St. Helena (NVV Office) 5/2/26 2045 57.0   5.3 - - 1.1   0.7 WNW | 282 3.6   1.3 0.00 0.00 71.8   7.1 53.1   5.7
Crossroads Ranch 5/2/26 2045 56.1   3.7 75   4 48.4   4.9 4.3   2.0 SSE | 161 6.7   4.4 0.00 0.00 67.5   4.9 52.4   6.2
Oakville 5/2/26 2045 56.2   3.6 74   5 48.1   5.3 3.2   2.5 SSE | 159 5.8   4.5 0.00 0.00 66.9   5.9 52.1   6.8
OV561-East 5/2/26 2045 56.3   3.8 - - - - - - - 69.2   4.9 52.1   5.3
OV518-West 5/2/26 2045 56.1   3.8 - - - - - - - 68.1   5.3 52.6   6.3
Napa-NW (Ranch 54) 5/2/26 2045 56.1   3.3 74   3 48.1   4.2 0.7   0.7 S | 177 2.4   2.4 0.00 0.00 69.5   3.7 51.3   4.6
Calistoga (Ranch 78) 5/2/26 2045 54.9   7.2 77   0 47.9   7.0 2.7   0.7 W | 265 5.0   1.1 0.00 0.00 73.8   10.3 52.5   7.7
Yountville-SE (Ranch 85) 5/2/26 2045 55.5   4.4 77   3 48.5   5.4 5.4   1.5 SSE | 153 8.7   1.8 0.00 0.00 66.5   4.7 53.2   7.8
Yountville-South (Ranch 87) 5/2/26 2045 55.3   4.0 79   5 48.8   5.6 4.5   2.0 ESE | 109 7.7   3.0 0.00 0.00 67.8   4.5 52.3   7.0
Rutherford Hill Estate 5/2/26 2045 55.8   3.8 78   3 49.2   4.8 1.1   0.2 SE | 145 5.5   0.2 0.00 0.00 70.2   5.2 51.3   2.2
Rutherford (STS) 5/2/26 2045 54.8   5.0 84   1 50.0   5.0 2.2   0.2 E | 96 4.2   1.1 0.00 0.00 70.6   5.7 52.5   7.7
Borreo (Soda Canyon) 5/2/26 2045 52.3   4.1 81   4 46.6   5.2 2.5   1.7 S | 178 7.0   5.0 0.00 0.00 63.5   5.8 50.9   6.3
Oakville-NE (Ranch 88) 5/2/26 2045 56.0   3.6 73   4 47.5   5.0 2.1   1.4 SSW | 202 5.8   3.9 0.00 0.00 69.3   5.2 52.0   7.2
Soda Canyon 5/2/26 2045 54.1   4.5 80   1 48.1   4.8 2.4   0.3 SE | 133 5.8   1.2 0.00 0.00 64.7   4.9 53.7   11.4
Silver Oak OV 5/2/26 2045 56.2   4.0 76   4 48.8   5.1 3.7   3.1 SSE | 154 5.9   6.2 0.00 0.00 67.2   5.5 52.2   6.4
Tiara Fria (East St. Helena) 5/2/26 2045 57.3   4.9 75   2 49.4   5.5 2.4   0.3 WNW | 299 6.3   1.8 0.00 0.00 68.8   7.0 53.4   5.7
To Kalon Remote (TKKE) 5/2/26 2045 56.8   4.0 - - - - - - - 70.4   5.1 52.9   8.5
To Kalon 5/2/26 2045 55.7   3.9 78   4 49.1   5.1 3.3   1.7 S | 178 6.0   3.3 0.00 0.00 67.9   4.5 52.1   7.0
To Kalon Remote (TKN5) 5/2/26 2045 56.7   3.5 - - - - - - - 71.0   4.0 52.4   6.9
St. Helena-North 5/2/26 2045 55.5   5.8 73   3 47.1   6.6 1.8   0.0 NW | 323 4.4   0.7 0.00 0.00 71.1   8.6 52.8   6.7
Twomey Calistoga 5/2/26 2045 54.1   5.9 82   2 48.9   6.5 1.8   0.8 W | 270 3.7   1.5 0.00 0.00 71.9   9.9 52.6   9.9
Wappo Hill Floor 5/2/26 2045 55.2   4.3 76   3 47.9   5.1 4.5   1.5 SE | 124 8.3   3.1 0.00 0.00 67.4   4.5 52.5   9.0
Yountville (Ranch 67) 5/2/26 2045 54.6   4.3 74   4 46.5   5.6 5.7   0.2 ESE | 119 10.8   1.1 0.00 0.00 66.5   4.7 52.2   6.8
Max     57.3 87 50.0 5.7 - 10.8 0.00 0.00 73.8 53.7
Avg     55.3 78 48.2 3.0 - 6.2 0.00 - - -
Min     51.9 73 46.5 0.7 - 2.4 0.00 0.00 63.5 49.3